Sublette, IL (61367)

5:37 AM CDT on September 19, 2014 (GMT -0500)
KILSUBLE2 | Change Station
CLOSE
Current Station
Personal Weather Station
Location: Sublette, IL
Elevation: 927 ft
Nearby Weather Stations

Elev 927 ft 41.65 °N, 89.23 °W | Updated 11 seconds ago

Fog
Fog
52.3 °F
Feels Like 52.3 °F
N
2.0
Wind Variable Wind from ESE
Gusts 3.5 mph

Today
High -- | Low -- °F
--% Chance of Precip.
Yesterday
High -- | Low -- °F
Precip. -- in
6:41 AM 6:59 PM
Waning Crescent, 20% visible
Pressure 30.14 in
Visibility 0.2 miles
Clouds Overcast 100 ft
Dew Point 52 °F
Humidity 98%
Rainfall 0.00 in
Snow Depth Not available.
UV 0 out of 12
Pollen 5.50 out of 12
Air Quality Not available.
Flu Activity Not available.
METAR KVYS 191015Z AUTO 00000KT 1/4SM FG OVC001 12/12 A3014 RMK AO2 T01180115

More Conditions Fewer Conditions

Pressure 30.14 in
Visibility 0.2 miles
Clouds Overcast 100 ft
Dew Point 52 °F
Humidity 98%
Rainfall 0.00 in
Snow Depth Not available.
UV 0 out of 12
Pollen 5.50 out of 12
Air Quality Not available.
Flu Activity Not available.
METAR KVYS 191015Z AUTO 00000KT 1/4SM FG OVC001 12/12 A3014 RMK AO2 T01180115

More Conditions Fewer Conditions

10-Day Weather Forecast

Almanac

Astronomy

Sep. 19, 2014 Rise Set
Actual Time 6:41 AM CDT 6:59 PM CDT
Civil Twilight 6:13 AM CDT 7:27 PM CDT
Nautical Twilight 5:40 AM CDT 7:59 PM CDT
Astronomical Twilight 5:07 AM CDT 8:32 PM CDT
Moon 2:23 AM CDT 4:30 PM CDT
Length of Visible Light 13h 13m
Length of Day
12h 18m
Tomorrow will be 2m 46s shorter.
Waning Crescent, 20% of the Moon is Illuminated
Today
Waning Crescent
Sep 24
New
Oct 1
First Quarter
Oct 8
Full
Oct 15
Last Quarter

Today's Extremes

State Highs State Lows

Community

WunderPhotos

Upload Photos

1,754,585 photos uploaded!

Nearby

Snow Depth

Station Depth Elevation
No new snow has been reported.

Earthquake Activity

City Distance Mag. Time & Date
No recent earthquake activity has been reported nearby.
Minimum magnitude displayed is 2.5.

Coastal Water Temperatures

Place Temperature
No Stations Reporting

Nearby Weather Stations